createdAt,value
2023-04-02T00:00:32.404Z,27.94
2023-04-02T00:05:32.899Z,27.74
2023-04-02T00:10:31.924Z,27.28
2023-04-02T00:15:30.159Z,27.02
2023-04-02T00:20:29.410Z,26.75
2023-04-02T00:25:29.651Z,26.18
2023-04-02T00:30:27.891Z,26.01
2023-04-02T00:35:27.156Z,25.62
2023-04-02T00:40:26.424Z,25.20
2023-04-02T00:45:26.702Z,24.53
2023-04-02T00:50:24.985Z,23.73
2023-04-02T00:55:24.290Z,23.48
2023-04-02T01:00:23.535Z,23.36
2023-04-02T01:05:22.819Z,22.06
2023-04-02T01:10:22.020Z,21.22
2023-04-02T01:15:22.139Z,21.52
2023-04-02T01:20:20.390Z,21.72
2023-04-02T01:25:20.684Z,21.67
2023-04-02T01:30:18.938Z,21.98
2023-04-02T01:35:19.229Z,21.82
2023-04-02T01:40:18.473Z,21.17
2023-04-02T01:45:16.737Z,21.28
2023-04-02T01:50:17.984Z,21.28
2023-04-02T01:55:15.266Z,20.76
2023-04-02T02:00:15.540Z,20.52
2023-04-02T02:05:13.834Z,20.35
2023-04-02T02:10:13.119Z,20.24
2023-04-02T02:15:12.397Z,19.99
2023-04-02T02:20:12.681Z,19.88
2023-04-02T02:25:12.038Z,19.76
2023-04-02T02:30:11.128Z,19.66
2023-04-02T02:35:09.389Z,19.41
2023-04-02T02:40:09.675Z,19.39
2023-04-02T02:45:06.950Z,19.18
2023-04-02T02:50:08.270Z,18.87
2023-04-02T02:55:06.549Z,18.42
2023-04-02T03:00:05.861Z,18.72
2023-04-02T03:05:05.146Z,18.75
2023-04-02T03:10:04.443Z,19.13
2023-04-02T03:15:03.765Z,18.67
2023-04-02T03:20:03.051Z,18.63
2023-04-02T03:25:03.372Z,18.58
2023-04-02T03:30:01.616Z,18.62
2023-04-02T03:35:01.901Z,18.69
2023-04-02T03:40:00.208Z,18.60
2023-04-02T03:44:59.361Z,18.18
2023-04-02T03:49:58.621Z,18.37
2023-04-02T03:54:58.136Z,18.25
2023-04-02T03:59:58.184Z,18.20
2023-04-02T04:04:56.479Z,17.95
2023-04-02T04:09:55.761Z,17.95
2023-04-02T04:14:55.063Z,18.00
2023-04-02T04:19:55.418Z,17.49
2023-04-02T04:24:53.515Z,17.56
2023-04-02T04:29:52.841Z,17.77
2023-04-02T04:34:52.143Z,17.74
2023-04-02T04:39:51.465Z,17.96
2023-04-02T04:44:50.783Z,17.81
2023-04-02T04:49:51.065Z,17.77
2023-04-02T04:54:49.369Z,17.79
2023-04-02T04:59:48.644Z,17.81
2023-04-02T05:04:47.972Z,17.81
2023-04-02T05:09:49.245Z,17.82
2023-04-02T05:14:46.518Z,17.84
2023-04-02T05:19:46.783Z,17.71
2023-04-02T05:24:45.044Z,17.36
2023-04-02T05:29:44.331Z,17.25
2023-04-02T05:34:43.683Z,17.44
2023-04-02T05:39:42.936Z,17.52
2023-04-02T05:44:42.242Z,17.26
2023-04-02T05:49:42.476Z,17.15
2023-04-02T05:54:40.738Z,17.25
2023-04-02T05:59:41.041Z,17.26
2023-04-02T06:04:38.304Z,17.52
2023-04-02T06:09:40.593Z,17.71
2023-04-02T06:14:38.854Z,17.70
2023-04-02T06:19:38.115Z,17.70
2023-04-02T06:24:38.385Z,17.81
2023-04-02T06:29:35.616Z,17.81
2023-04-02T06:34:35.874Z,17.72
2023-04-02T06:39:34.157Z,17.62
2023-04-02T06:44:34.423Z,17.54
2023-04-02T06:49:33.681Z,17.44
2023-04-02T06:54:31.949Z,16.96
2023-04-02T06:59:32.292Z,17.22
2023-04-02T07:04:31.643Z,17.59
2023-04-02T07:09:28.905Z,17.74
2023-04-02T07:14:29.224Z,17.63
2023-04-02T07:19:29.501Z,17.66
2023-04-02T07:24:28.802Z,17.72
2023-04-02T07:29:27.032Z,17.68
2023-04-02T07:34:26.306Z,17.56
2023-04-02T07:39:25.580Z,17.52
2023-04-02T07:44:24.889Z,17.49
2023-04-02T07:49:25.127Z,17.62
2023-04-02T07:54:25.406Z,17.79
2023-04-02T07:59:22.724Z,17.81
2023-04-02T08:04:23.271Z,17.92
2023-04-02T08:09:22.221Z,17.92
2023-04-02T08:14:21.487Z,18.10
2023-04-02T08:19:19.794Z,18.07
2023-04-02T08:24:19.079Z,18.05
2023-04-02T08:29:18.382Z,17.99
2023-04-02T08:34:17.631Z,18.17
2023-04-02T08:39:15.953Z,18.27
2023-04-02T08:44:17.256Z,18.42
2023-04-02T08:49:15.542Z,18.45
2023-04-02T08:54:14.822Z,18.44
2023-04-02T08:59:14.105Z,18.32
2023-04-02T09:04:13.405Z,18.35
2023-04-02T09:09:12.659Z,18.18
2023-04-02T09:14:12.970Z,18.20
2023-04-02T09:19:10.236Z,18.55
2023-04-02T09:24:10.519Z,18.57
2023-04-02T09:29:09.808Z,18.60
2023-04-02T09:34:09.102Z,18.58
2023-04-02T09:39:09.381Z,18.57
2023-04-02T09:44:08.655Z,18.32
2023-04-02T09:49:06.934Z,18.21
2023-04-02T09:54:07.209Z,18.35
2023-04-02T09:59:06.455Z,18.27
2023-04-02T10:04:05.746Z,18.33
2023-04-02T10:09:06.056Z,18.44
2023-04-02T10:14:03.315Z,18.63
2023-04-02T10:19:02.606Z,18.58
2023-04-02T10:24:02.973Z,18.39
2023-04-02T10:29:02.110Z,18.32
2023-04-02T10:34:00.400Z,18.21
2023-04-02T10:39:01.774Z,18.36
2023-04-02T10:44:03.645Z,18.29
2023-04-02T10:48:59.068Z,18.21
2023-04-02T10:53:58.413Z,18.20
2023-04-02T10:58:57.575Z,18.11
2023-04-02T11:03:58.100Z,18.26
2023-04-02T11:08:55.004Z,18.52
2023-04-02T11:13:54.342Z,18.81
2023-04-02T11:18:54.604Z,19.47
2023-04-02T11:23:51.881Z,20.52
2023-04-02T11:28:52.156Z,21.38
2023-04-02T11:33:51.608Z,22.28
2023-04-02T11:38:52.525Z,23.07
2023-04-02T11:43:50.026Z,23.54
2023-04-02T11:48:49.561Z,24.21
2023-04-02T11:53:48.418Z,24.87
2023-04-02T11:58:48.698Z,25.43
2023-04-02T12:03:46.992Z,25.95
2023-04-02T12:08:56.977Z,26.39
2023-04-02T12:13:45.605Z,26.77
2023-04-02T12:18:44.932Z,27.14
2023-04-02T12:23:44.052Z,27.49
2023-04-02T12:28:44.271Z,27.75
2023-04-02T12:33:42.572Z,27.88
2023-04-02T12:38:41.858Z,28.04
2023-04-02T12:43:42.133Z,28.17
2023-04-02T12:48:41.459Z,28.29
2023-04-02T12:53:40.742Z,28.48
2023-04-02T12:58:39.002Z,28.43
2023-04-02T13:03:39.307Z,28.44
2023-04-02T13:08:38.771Z,28.62
2023-04-02T13:13:36.985Z,28.74
2023-04-02T13:18:36.047Z,28.68
2023-04-02T13:23:38.346Z,28.86
2023-04-02T13:28:35.752Z,28.96
2023-04-02T13:33:33.816Z,29.16
2023-04-02T13:38:34.103Z,29.15
2023-04-02T13:43:32.434Z,29.19
2023-04-02T13:48:31.692Z,29.16
2023-04-02T13:53:32.037Z,29.23
2023-04-02T13:58:30.585Z,29.31
2023-04-02T14:03:29.540Z,29.19
2023-04-02T14:08:32.874Z,29.37
2023-04-02T14:13:28.180Z,29.41
2023-04-02T14:18:27.733Z,29.61
2023-04-02T14:23:27.632Z,29.71
2023-04-02T14:28:25.932Z,29.82
2023-04-02T14:33:25.218Z,29.87
2023-04-02T14:38:24.712Z,29.92
2023-04-02T14:43:24.039Z,29.89
2023-04-02T14:48:23.982Z,29.87
2023-04-02T14:53:22.577Z,29.83
2023-04-02T14:58:21.598Z,29.94
2023-04-02T15:03:21.230Z,29.94
2023-04-02T15:08:20.217Z,30.00
2023-04-02T15:13:19.340Z,30.01
2023-04-02T15:18:18.723Z,30.04
2023-04-02T15:23:18.143Z,30.02
2023-04-02T15:28:17.141Z,30.47
2023-04-02T15:33:16.228Z,30.77
2023-04-02T15:38:15.919Z,30.39
2023-04-02T15:43:16.005Z,30.51
2023-04-02T15:48:14.155Z,30.53
2023-04-02T15:53:14.113Z,30.47
2023-04-02T15:58:13.724Z,30.42
2023-04-02T16:03:11.966Z,30.07
2023-04-02T16:08:10.896Z,29.83
2023-04-02T16:13:11.199Z,29.63
2023-04-02T16:18:09.685Z,29.51
2023-04-02T16:23:08.949Z,29.64
2023-04-02T16:28:09.393Z,29.49
2023-04-02T16:33:07.571Z,29.36
2023-04-02T16:38:07.103Z,29.45
2023-04-02T16:43:05.827Z,29.52
2023-04-02T16:48:03.950Z,29.55
2023-04-02T16:53:04.357Z,29.42
2023-04-02T16:58:04.764Z,29.31
2023-04-02T17:03:03.909Z,29.28
2023-04-02T17:08:04.162Z,29.27
2023-04-02T17:13:01.321Z,29.15
2023-04-02T17:18:00.663Z,29.04
2023-04-02T17:23:05.702Z,29.09
2023-04-02T17:27:58.610Z,28.59
2023-04-02T17:32:59.025Z,28.22
2023-04-02T17:37:58.339Z,26.70
2023-04-02T17:42:56.684Z,27.04
2023-04-02T17:47:58.050Z,27.03
2023-04-02T17:52:54.980Z,26.92
2023-04-02T17:57:54.626Z,25.91
2023-04-02T18:02:54.999Z,26.28
2023-04-02T18:07:54.094Z,25.69
2023-04-02T18:12:52.330Z,26.70
2023-04-02T18:17:51.704Z,26.92
2023-04-02T18:22:50.867Z,26.69
2023-04-02T18:27:50.025Z,26.20
2023-04-02T18:32:50.173Z,25.97
2023-04-02T18:37:48.959Z,26.89
2023-04-02T18:42:48.637Z,26.95
2023-04-02T18:47:47.025Z,26.25
2023-04-02T18:52:47.191Z,25.70
2023-04-02T18:57:44.974Z,25.99
2023-04-02T19:02:44.767Z,25.79
2023-04-02T19:07:43.928Z,26.30
2023-04-02T19:12:44.265Z,25.80
2023-04-02T19:17:44.361Z,25.23
2023-04-02T19:22:41.732Z,24.87
2023-04-02T19:27:40.486Z,24.43
2023-04-02T19:32:40.178Z,24.95
2023-04-02T19:37:38.928Z,24.96
2023-04-02T19:42:47.194Z,24.40
2023-04-02T19:47:37.978Z,24.55
2023-04-02T19:52:37.176Z,24.58
2023-04-02T19:57:36.305Z,23.97
2023-04-02T20:02:36.720Z,24.21
2023-04-02T20:07:37.751Z,24.47
2023-04-02T20:12:34.002Z,24.37
2023-04-02T20:17:33.998Z,24.60
2023-04-02T20:22:36.411Z,24.95
2023-04-02T20:27:32.866Z,25.03
2023-04-02T20:32:31.871Z,25.65
2023-04-02T20:37:30.102Z,26.37
2023-04-02T20:42:31.736Z,26.62
2023-04-02T20:47:29.980Z,27.14
2023-04-02T20:52:27.937Z,27.49
2023-04-02T20:57:27.211Z,27.49
2023-04-02T21:02:28.505Z,27.09
2023-04-02T21:07:25.747Z,26.01
2023-04-02T21:12:25.024Z,25.33
2023-04-02T21:17:24.291Z,25.36
2023-04-02T21:22:25.775Z,25.03
2023-04-02T21:27:23.848Z,25.15
2023-04-02T21:32:24.204Z,24.84
2023-04-02T21:37:22.269Z,25.50
2023-04-02T21:42:20.521Z,24.84
2023-04-02T21:47:19.843Z,24.85
2023-04-02T21:52:20.073Z,23.91
2023-04-02T21:57:19.141Z,24.00
2023-04-02T22:02:17.506Z,24.09
2023-04-02T22:07:18.809Z,23.51
2023-04-02T22:12:17.113Z,23.70
2023-04-02T22:17:16.394Z,25.57
2023-04-02T22:22:17.666Z,24.78
2023-04-02T22:27:17.068Z,24.57
2023-04-02T22:32:13.157Z,24.28
2023-04-02T22:37:12.447Z,23.63
2023-04-02T22:42:11.697Z,23.32
2023-04-02T22:47:11.973Z,22.97
2023-04-02T22:52:11.247Z,21.92
2023-04-02T22:57:10.587Z,21.54
2023-04-02T23:02:09.819Z,21.67
2023-04-02T23:07:09.079Z,21.04
2023-04-02T23:12:07.339Z,20.99
2023-04-02T23:17:06.633Z,20.26
2023-04-02T23:22:06.910Z,19.94
2023-04-02T23:27:05.248Z,19.77
2023-04-02T23:32:08.341Z,19.63
2023-04-02T23:37:03.635Z,19.47
2023-04-02T23:42:03.697Z,19.33
2023-04-02T23:47:02.087Z,19.02
2023-04-02T23:52:00.207Z,19.02
2023-04-02T23:57:00.525Z,18.75
